createdAt,value
2023-02-17T00:01:13.040Z,64.43
2023-02-17T00:03:40.729Z,63.05
2023-02-17T00:06:09.900Z,64.03
2023-02-17T00:08:37.794Z,67.95
2023-02-17T00:11:05.440Z,66.20
2023-02-17T00:13:34.044Z,62.67
2023-02-17T00:16:06.363Z,67.63
2023-02-17T00:18:33.815Z,66.72
2023-02-17T00:21:00.890Z,71.35
2023-02-17T00:23:28.113Z,68.50
2023-02-17T00:25:55.157Z,72.75
2023-02-17T00:28:22.394Z,63.72
2023-02-17T00:30:49.404Z,58.72
2023-02-17T00:33:17.005Z,65.95
2023-02-17T00:35:43.958Z,63.38
2023-02-17T00:38:11.181Z,55.90
2023-02-17T00:40:38.979Z,62.55
2023-02-17T00:43:06.480Z,64.18
2023-02-17T00:45:33.742Z,63.42
2023-02-17T00:48:01.294Z,66.85
2023-02-17T00:50:28.215Z,64.20
2023-02-17T00:52:55.404Z,68.30
2023-02-17T00:55:22.375Z,62.88
2023-02-17T00:57:49.826Z,67.82
2023-02-17T01:00:17.327Z,56.63
2023-02-17T01:02:44.609Z,59.13
2023-02-17T01:05:11.689Z,64.75
2023-02-17T01:07:39.241Z,56.15
2023-02-17T01:10:06.763Z,58.47
2023-02-17T01:12:34.462Z,56.63
2023-02-17T01:15:01.798Z,58.50
2023-02-17T01:17:29.059Z,60.38
2023-02-17T01:19:57.022Z,56.33
2023-02-17T01:22:24.595Z,56.38
2023-02-17T01:24:51.521Z,59.63
2023-02-17T01:27:18.765Z,61.75
2023-02-17T01:29:46.562Z,54.90
2023-02-17T01:32:14.042Z,50.92
2023-02-17T01:34:41.061Z,66.15
2023-02-17T01:37:08.632Z,57.67
2023-02-17T01:39:35.681Z,57.80
2023-02-17T01:42:03.118Z,61.42
2023-02-17T01:44:32.641Z,56.45
2023-02-17T01:47:00.155Z,68.25
2023-02-17T01:49:30.443Z,63.42
2023-02-17T01:52:08.080Z,59.92
2023-02-17T01:54:49.037Z,60.58
2023-02-17T01:57:20.357Z,59.10
2023-02-17T01:59:48.067Z,67.32
2023-02-17T02:02:15.955Z,63.15
2023-02-17T02:04:46.864Z,57.95
2023-02-17T02:07:26.033Z,54.60
2023-02-17T02:09:56.371Z,60.35
2023-02-17T02:12:29.779Z,57.38
2023-02-17T02:17:43.807Z,56.97
2023-02-17T02:20:43.789Z,60.15
2023-02-17T02:23:23.662Z,56.17
2023-02-17T02:25:59.709Z,50.30
2023-02-17T02:28:35.760Z,52.63
2023-02-17T02:31:21.527Z,51.38
2023-02-17T02:34:02.482Z,54.03
2023-02-17T02:36:46.739Z,54.92
2023-02-17T02:39:16.049Z,58.88
2023-02-17T02:41:51.036Z,56.30
2023-02-17T02:44:20.907Z,55.03
2023-02-17T02:47:35.910Z,49.25
2023-02-17T02:50:03.439Z,58.80
2023-02-17T02:52:39.820Z,58.88
2023-02-17T02:55:23.258Z,60.38
2023-02-17T02:58:17.476Z,56.80
2023-02-17T03:00:54.114Z,56.45
2023-02-17T03:04:07.585Z,56.03
2023-02-17T03:06:53.794Z,52.50
2023-02-17T03:09:27.383Z,52.72
2023-02-17T03:11:57.120Z,54.47
2023-02-17T03:14:24.600Z,49.25
2023-02-17T03:16:52.839Z,49.67
2023-02-17T03:19:23.442Z,59.13
2023-02-17T03:21:58.863Z,53.60
2023-02-17T03:24:26.067Z,54.55
2023-02-17T03:26:53.335Z,52.25
2023-02-17T03:29:20.358Z,52.58
2023-02-17T03:31:47.898Z,47.30
2023-02-17T03:34:14.881Z,51.45
2023-02-17T03:36:42.102Z,58.20
2023-02-17T03:39:09.044Z,51.30
2023-02-17T03:41:36.404Z,54.25
2023-02-17T03:44:03.553Z,57.97
2023-02-17T03:46:31.125Z,48.03
2023-02-17T03:48:58.172Z,54.35
2023-02-17T03:51:25.981Z,54.17
2023-02-17T03:53:53.388Z,50.38
2023-02-17T03:56:20.949Z,47.70
2023-02-17T03:58:47.975Z,52.00
2023-02-17T04:01:15.809Z,57.00
2023-02-17T04:03:43.067Z,59.97
2023-02-17T04:06:11.835Z,55.35
2023-02-17T04:08:40.115Z,54.97
2023-02-17T04:11:09.438Z,45.85
2023-02-17T04:13:37.604Z,47.38
2023-02-17T04:16:08.996Z,47.13
2023-02-17T04:18:36.928Z,50.22
2023-02-17T04:21:05.576Z,50.13
2023-02-17T04:23:34.002Z,40.78
2023-02-17T04:26:01.449Z,51.78
2023-02-17T04:28:28.434Z,46.95
2023-02-17T04:30:58.451Z,45.15
2023-02-17T04:33:26.314Z,50.97
2023-02-17T04:35:59.491Z,54.22
2023-02-17T04:38:29.189Z,47.70
2023-02-17T04:40:57.507Z,50.83
2023-02-17T04:43:26.349Z,44.08
2023-02-17T04:45:54.237Z,48.70
2023-02-17T04:48:21.944Z,46.05
2023-02-17T04:50:49.147Z,47.33
2023-02-17T04:53:16.538Z,42.92
2023-02-17T04:55:43.804Z,41.80
2023-02-17T04:58:11.050Z,46.10
2023-02-17T05:00:38.358Z,43.63
2023-02-17T05:03:05.507Z,46.05
2023-02-17T05:05:32.854Z,46.55
2023-02-17T05:07:59.853Z,41.03
2023-02-17T05:10:27.193Z,44.78
2023-02-17T05:12:54.209Z,42.25
2023-02-17T05:15:21.511Z,46.10
2023-02-17T05:17:48.446Z,42.88
2023-02-17T05:20:15.663Z,44.05
2023-02-17T05:22:42.588Z,44.80
2023-02-17T05:25:10.009Z,39.80
2023-02-17T05:27:37.121Z,42.33
2023-02-17T05:30:05.525Z,46.75
2023-02-17T05:32:32.743Z,41.50
2023-02-17T05:35:00.014Z,42.58
2023-02-17T05:37:27.586Z,42.60
2023-02-17T05:39:54.801Z,39.45
2023-02-17T05:42:21.884Z,37.63
2023-02-17T05:44:49.401Z,34.15
2023-02-17T05:47:16.405Z,41.42
2023-02-17T05:49:43.648Z,35.97
2023-02-17T05:52:10.626Z,37.42
2023-02-17T05:54:37.894Z,41.33
2023-02-17T05:57:05.153Z,38.60
2023-02-17T05:59:32.552Z,38.20
2023-02-17T06:01:59.489Z,37.20
2023-02-17T06:04:27.034Z,40.00
2023-02-17T06:06:54.040Z,38.80
2023-02-17T06:09:21.303Z,39.30
2023-02-17T06:11:48.254Z,39.08
2023-02-17T06:14:15.460Z,50.00
2023-02-17T06:16:42.654Z,39.33
2023-02-17T06:19:09.987Z,38.05
2023-02-17T06:21:37.341Z,40.45
2023-02-17T06:24:04.854Z,34.97
2023-02-17T06:26:31.842Z,43.40
2023-02-17T06:28:59.140Z,40.65
2023-02-17T06:31:26.268Z,37.85
2023-02-17T06:33:53.733Z,39.55
2023-02-17T06:36:20.792Z,37.50
2023-02-17T06:38:48.183Z,37.92
2023-02-17T06:41:15.369Z,39.25
2023-02-17T06:43:42.619Z,34.47
2023-02-17T06:46:10.083Z,40.35
2023-02-17T06:48:37.652Z,38.42
2023-02-17T06:51:04.983Z,40.13
2023-02-17T06:53:32.331Z,44.60
2023-02-17T06:55:59.326Z,43.10
2023-02-17T06:58:26.695Z,41.83
2023-02-17T07:00:53.714Z,42.78
2023-02-17T07:03:21.230Z,38.70
2023-02-17T07:05:48.485Z,35.70
2023-02-17T07:08:15.835Z,45.35
2023-02-17T07:10:42.837Z,39.20
2023-02-17T07:13:10.147Z,45.67
2023-02-17T07:15:37.204Z,40.35
2023-02-17T07:18:04.847Z,45.92
2023-02-17T07:20:32.214Z,41.13
2023-02-17T07:23:01.157Z,42.70
2023-02-17T07:25:28.361Z,37.65
2023-02-17T07:27:55.827Z,45.10
2023-02-17T07:30:23.138Z,41.83
2023-02-17T07:32:50.510Z,43.58
2023-02-17T07:35:17.914Z,46.20
2023-02-17T07:37:45.142Z,42.10
2023-02-17T07:40:12.649Z,39.33
2023-02-17T07:42:40.049Z,46.40
2023-02-17T07:45:07.277Z,51.47
2023-02-17T07:47:34.789Z,41.03
2023-02-17T07:50:01.735Z,45.85
2023-02-17T07:52:29.438Z,41.63
2023-02-17T07:54:56.506Z,44.58
2023-02-17T07:57:23.908Z,46.05
2023-02-17T07:59:50.936Z,46.97
2023-02-17T08:02:18.428Z,43.22
2023-02-17T08:04:45.584Z,40.10
2023-02-17T08:07:14.303Z,48.85
2023-02-17T08:09:59.754Z,47.33
2023-02-17T08:12:45.883Z,40.95
2023-02-17T08:15:13.228Z,42.92
2023-02-17T08:17:40.532Z,41.72
2023-02-17T08:20:09.484Z,41.00
2023-02-17T08:22:37.665Z,47.78
2023-02-17T08:25:06.320Z,50.95
2023-02-17T08:27:34.123Z,51.17
2023-02-17T08:30:01.218Z,49.30
2023-02-17T08:32:28.666Z,45.45
2023-02-17T08:34:56.790Z,49.08
2023-02-17T08:37:25.572Z,42.88
2023-02-17T08:39:53.346Z,45.35
2023-02-17T08:42:20.684Z,43.08
2023-02-17T08:44:47.737Z,43.83
2023-02-17T08:47:15.386Z,40.38
2023-02-17T08:49:43.892Z,43.20
2023-02-17T08:52:11.224Z,49.40
2023-02-17T08:54:38.639Z,44.60
2023-02-17T08:57:06.151Z,46.72
2023-02-17T08:59:33.189Z,46.28
2023-02-17T09:02:00.768Z,45.30
2023-02-17T09:04:27.919Z,37.13
2023-02-17T09:06:58.640Z,40.70
2023-02-17T09:09:27.433Z,43.58
2023-02-17T09:11:57.326Z,44.55
2023-02-17T09:14:24.762Z,42.63
2023-02-17T09:16:52.501Z,43.15
2023-02-17T09:19:19.811Z,42.60
2023-02-17T09:21:48.401Z,44.47
2023-02-17T09:24:17.186Z,39.83
2023-02-17T09:26:44.338Z,40.00
2023-02-17T09:29:12.208Z,43.90
2023-02-17T09:31:39.328Z,47.33
2023-02-17T09:34:06.773Z,42.05
2023-02-17T09:36:39.606Z,41.15
2023-02-17T09:39:07.247Z,42.78
2023-02-17T09:41:41.869Z,39.15
2023-02-17T09:44:21.089Z,45.08
2023-02-17T09:47:01.381Z,49.47
2023-02-17T09:49:39.635Z,46.60
2023-02-17T09:52:28.771Z,44.03
2023-02-17T09:55:34.466Z,41.55
2023-02-17T09:58:22.300Z,37.60
2023-02-17T10:00:54.608Z,42.70
2023-02-17T10:03:31.049Z,36.80
2023-02-17T10:06:19.054Z,47.70
2023-02-17T10:08:55.274Z,40.45
2023-02-17T10:11:31.781Z,42.17
2023-02-17T10:14:09.379Z,45.40
2023-02-17T10:16:43.856Z,39.20
2023-02-17T10:19:51.871Z,41.20
2023-02-17T10:22:22.406Z,37.40
2023-02-17T10:24:49.595Z,39.22
2023-02-17T10:27:36.266Z,39.35
2023-02-17T10:30:26.510Z,46.08
2023-02-17T10:33:20.003Z,42.03
2023-02-17T10:35:52.748Z,40.38
2023-02-17T10:41:18.538Z,37.33
2023-02-17T10:43:46.454Z,38.83
2023-02-17T10:46:17.265Z,40.50
2023-02-17T10:48:51.132Z,36.45
2023-02-17T10:51:23.628Z,44.50
2023-02-17T10:54:07.782Z,37.00
2023-02-17T10:56:38.246Z,33.78
2023-02-17T10:59:23.781Z,38.67
2023-02-17T11:01:51.324Z,39.45
2023-02-17T11:04:18.698Z,35.85
2023-02-17T11:06:50.943Z,35.78
2023-02-17T11:09:32.786Z,36.08
2023-02-17T11:12:10.702Z,41.30
2023-02-17T11:14:43.816Z,36.60
2023-02-17T11:17:38.343Z,37.45
2023-02-17T11:20:27.102Z,45.28
2023-02-17T11:23:16.229Z,39.28
2023-02-17T11:25:54.481Z,47.88
2023-02-17T11:28:24.130Z,34.00
2023-02-17T11:31:02.491Z,39.30
2023-02-17T11:33:38.489Z,39.63
2023-02-17T11:36:07.933Z,41.35
2023-02-17T11:38:38.234Z,36.65
2023-02-17T11:41:08.096Z,43.78
2023-02-17T11:43:36.086Z,41.17
2023-02-17T11:46:21.426Z,41.03
2023-02-17T11:49:13.236Z,43.63
2023-02-17T11:51:46.061Z,45.28
2023-02-17T11:54:21.375Z,47.90
2023-02-17T11:57:35.375Z,41.63
2023-02-17T12:00:14.890Z,45.22
2023-02-17T12:03:10.306Z,40.92
2023-02-17T12:05:40.444Z,41.97
2023-02-17T12:08:33.855Z,44.47
2023-02-17T12:11:37.054Z,44.90
2023-02-17T12:16:55.607Z,36.22
2023-02-17T12:19:57.577Z,44.92
2023-02-17T12:22:41.728Z,46.60
2023-02-17T12:25:20.892Z,40.25
2023-02-17T12:28:38.415Z,42.38
2023-02-17T12:31:57.582Z,45.33
2023-02-17T12:34:37.111Z,47.55
2023-02-17T12:37:06.680Z,41.97
2023-02-17T12:39:48.289Z,40.92
2023-02-17T12:42:18.782Z,37.33
2023-02-17T12:44:53.134Z,44.78
2023-02-17T12:47:46.796Z,38.33
2023-02-17T12:50:46.518Z,39.75
2023-02-17T12:53:42.034Z,37.05
2023-02-17T12:56:26.663Z,35.70
2023-02-17T12:58:59.227Z,80.00
2023-02-17T13:01:31.377Z,224.85
2023-02-17T13:04:03.132Z,365.60
2023-02-17T13:06:43.196Z,282.95
2023-02-17T13:09:34.646Z,223.80
2023-02-17T13:12:17.473Z,339.98
2023-02-17T13:14:53.588Z,373.38
2023-02-17T13:17:51.884Z,209.40
2023-02-17T13:20:19.065Z,195.27
2023-02-17T13:22:46.947Z,228.68
2023-02-17T13:25:30.463Z,165.27
2023-02-17T13:27:59.514Z,128.68
2023-02-17T13:30:39.985Z,98.28
2023-02-17T13:33:20.797Z,107.38
2023-02-17T13:35:48.672Z,47.85
2023-02-17T13:38:28.365Z,55.58
2023-02-17T13:41:01.351Z,58.30
2023-02-17T13:43:33.145Z,72.75
2023-02-17T13:46:03.640Z,76.30
2023-02-17T13:48:33.735Z,84.65
2023-02-17T13:51:03.927Z,68.93
2023-02-17T13:53:40.642Z,60.50
2023-02-17T13:56:23.768Z,48.33
2023-02-17T13:58:50.808Z,246.83
2023-02-17T14:01:22.527Z,51.35
2023-02-17T14:03:52.506Z,96.78
2023-02-17T14:06:28.318Z,102.45
2023-02-17T14:08:56.449Z,75.10
2023-02-17T14:11:26.789Z,52.20
2023-02-17T14:13:56.692Z,51.40
2023-02-17T14:16:35.798Z,43.85
2023-02-17T14:19:13.228Z,56.80
2023-02-17T14:21:56.920Z,49.72
2023-02-17T14:27:01.086Z,40.50
2023-02-17T14:29:42.943Z,36.20
2023-02-17T14:32:37.564Z,46.50
2023-02-17T14:35:09.128Z,50.20
2023-02-17T14:37:36.947Z,40.60
2023-02-17T14:40:07.762Z,45.30
2023-02-17T14:42:36.258Z,36.25
2023-02-17T14:45:03.311Z,36.55
2023-02-17T14:47:30.598Z,39.13
2023-02-17T14:49:57.664Z,40.53
2023-02-17T14:52:25.668Z,46.30
2023-02-17T14:54:52.715Z,43.25
2023-02-17T14:57:27.346Z,41.60
2023-02-17T14:59:57.901Z,38.63
2023-02-17T15:02:25.637Z,35.60
2023-02-17T15:04:52.696Z,37.50
2023-02-17T15:07:20.117Z,38.83
2023-02-17T15:09:49.052Z,37.42
2023-02-17T15:12:19.458Z,36.42
2023-02-17T15:14:49.798Z,36.83
2023-02-17T15:17:17.132Z,36.88
2023-02-17T15:19:44.948Z,39.17
2023-02-17T15:22:13.624Z,34.35
2023-02-17T15:24:41.027Z,39.40
2023-02-17T15:27:14.363Z,40.63
2023-02-17T15:29:41.327Z,40.95
2023-02-17T15:32:24.024Z,39.20
2023-02-17T15:34:51.136Z,38.88
2023-02-17T15:37:18.424Z,37.13
2023-02-17T15:39:45.337Z,37.20
2023-02-17T15:42:14.410Z,36.72
2023-02-17T15:44:45.487Z,42.88
2023-02-17T15:47:18.080Z,36.88
2023-02-17T15:49:45.695Z,35.10
2023-02-17T15:52:14.334Z,44.55
2023-02-17T15:54:42.834Z,42.65
2023-02-17T15:57:22.146Z,37.35
2023-02-17T15:59:49.340Z,36.88
2023-02-17T16:02:23.347Z,33.30
2023-02-17T16:04:50.657Z,37.67
2023-02-17T16:07:18.027Z,38.42
2023-02-17T16:09:45.007Z,51.78
2023-02-17T16:12:18.812Z,68.95
2023-02-17T16:14:48.238Z,51.47
2023-02-17T16:17:16.951Z,44.97
2023-02-17T16:19:43.962Z,47.13
2023-02-17T16:22:11.513Z,42.58
2023-02-17T16:24:38.585Z,37.75
2023-02-17T16:27:10.028Z,52.33
2023-02-17T16:29:37.065Z,83.32
2023-02-17T16:32:04.595Z,54.20
2023-02-17T16:34:33.538Z,114.50
2023-02-17T16:37:11.154Z,64.68
2023-02-17T16:39:39.332Z,40.45
2023-02-17T16:42:06.635Z,31.95
2023-02-17T16:44:33.599Z,33.00
2023-02-17T16:47:02.669Z,33.72
2023-02-17T16:49:37.724Z,33.83
2023-02-17T16:52:08.095Z,29.55
2023-02-17T16:54:35.824Z,35.42
2023-02-17T16:57:03.479Z,34.97
2023-02-17T16:59:30.512Z,30.80
2023-02-17T17:01:58.173Z,30.83
2023-02-17T17:04:25.202Z,30.27
2023-02-17T17:06:52.811Z,32.00
2023-02-17T17:09:23.197Z,39.88
2023-02-17T17:11:50.942Z,35.65
2023-02-17T17:14:18.966Z,31.10
2023-02-17T17:16:58.274Z,30.13
2023-02-17T17:19:25.402Z,33.42
2023-02-17T17:21:52.751Z,31.48
2023-02-17T17:24:20.002Z,30.55
2023-02-17T17:26:50.163Z,31.00
2023-02-17T17:29:19.489Z,38.92
2023-02-17T17:31:47.305Z,36.80
2023-02-17T17:34:14.512Z,32.03
2023-02-17T17:36:45.072Z,30.65
2023-02-17T17:39:21.460Z,29.63
2023-02-17T17:41:50.312Z,29.38
2023-02-17T17:44:17.498Z,32.25
2023-02-17T17:46:44.881Z,29.88
2023-02-17T17:49:13.905Z,31.10
2023-02-17T17:51:41.223Z,29.10
2023-02-17T17:54:08.366Z,30.30
2023-02-17T17:56:39.214Z,38.08
2023-02-17T17:59:06.918Z,37.20
2023-02-17T18:01:34.660Z,73.65
2023-02-17T18:04:02.221Z,56.20
2023-02-17T18:06:47.244Z,38.22
2023-02-17T18:09:31.147Z,36.20
2023-02-17T18:12:04.548Z,33.58
2023-02-17T18:14:32.636Z,37.85
2023-02-17T18:17:00.523Z,37.03
2023-02-17T18:19:29.381Z,36.38
2023-02-17T18:21:56.917Z,39.70
2023-02-17T18:24:23.861Z,38.80
2023-02-17T18:26:52.254Z,37.15
2023-02-17T18:29:19.937Z,32.95
2023-02-17T18:31:47.773Z,38.40
2023-02-17T18:34:15.017Z,32.40
2023-02-17T18:36:42.289Z,32.25
2023-02-17T18:39:09.280Z,40.28
2023-02-17T18:41:36.908Z,38.03
2023-02-17T18:44:05.276Z,37.53
2023-02-17T18:46:33.393Z,35.38
2023-02-17T18:49:00.708Z,33.67
2023-02-17T18:51:31.129Z,32.45
2023-02-17T18:53:59.481Z,31.40
2023-02-17T18:56:29.758Z,28.85
2023-02-17T18:58:57.187Z,36.28
2023-02-17T19:01:36.254Z,44.45
2023-02-17T19:04:04.900Z,54.33
2023-02-17T19:06:34.934Z,33.20
2023-02-17T19:09:04.337Z,28.55
2023-02-17T19:11:33.688Z,26.42
2023-02-17T19:14:02.032Z,26.77
2023-02-17T19:16:31.420Z,23.63
2023-02-17T19:18:59.596Z,22.05
2023-02-17T19:21:27.362Z,22.83
2023-02-17T19:23:54.574Z,17.67
2023-02-17T19:26:22.288Z,21.75
2023-02-17T19:28:49.314Z,23.42
2023-02-17T19:31:19.538Z,22.83
2023-02-17T19:33:47.044Z,20.95
2023-02-17T19:36:17.252Z,19.13
2023-02-17T19:38:44.456Z,17.63
2023-02-17T19:41:12.969Z,19.77
2023-02-17T19:43:41.047Z,20.92
2023-02-17T19:46:15.437Z,18.10
2023-02-17T19:48:42.560Z,19.80
2023-02-17T19:51:12.364Z,17.17
2023-02-17T19:53:39.879Z,20.08
2023-02-17T19:56:11.583Z,14.73
2023-02-17T19:58:39.784Z,16.17
2023-02-17T20:01:13.059Z,20.48
2023-02-17T20:03:40.536Z,16.60
2023-02-17T20:06:10.307Z,18.08
2023-02-17T20:08:38.080Z,19.10
2023-02-17T20:11:09.281Z,18.85
2023-02-17T20:13:45.588Z,19.92
2023-02-17T20:16:15.717Z,16.55
2023-02-17T20:18:45.616Z,14.70
2023-02-17T20:21:24.948Z,11.35
2023-02-17T20:23:52.813Z,12.25
2023-02-17T20:26:25.429Z,12.75
2023-02-17T20:28:52.929Z,12.80
2023-02-17T20:31:20.987Z,14.52
2023-02-17T20:33:48.290Z,13.77
2023-02-17T20:36:16.142Z,13.52
2023-02-17T20:38:43.382Z,12.20
2023-02-17T20:41:14.989Z,11.10
2023-02-17T20:43:41.953Z,9.02
2023-02-17T20:46:18.877Z,10.38
2023-02-17T20:48:46.566Z,14.07
2023-02-17T20:51:14.272Z,11.77
2023-02-17T20:53:41.192Z,13.15
2023-02-17T20:56:18.044Z,12.85
2023-02-17T20:58:46.124Z,9.85
2023-02-17T21:01:13.835Z,7.95
2023-02-17T21:03:41.131Z,4.75
2023-02-17T21:06:30.110Z,4.65
2023-02-17T21:09:04.146Z,5.20
2023-02-17T21:11:31.977Z,6.65
2023-02-17T21:13:59.140Z,9.10
2023-02-17T21:16:30.985Z,6.15
2023-02-17T21:18:59.086Z,5.72
2023-02-17T21:21:27.879Z,5.20
2023-02-17T21:23:55.997Z,4.05
2023-02-17T21:26:24.085Z,7.68
2023-02-17T21:28:51.153Z,4.97
2023-02-17T21:31:19.005Z,6.07
2023-02-17T21:33:46.079Z,5.85
2023-02-17T21:36:16.508Z,8.13
2023-02-17T21:38:43.986Z,8.13
2023-02-17T21:41:13.991Z,7.93
2023-02-17T21:44:00.097Z,8.18
2023-02-17T21:46:28.249Z,8.18
2023-02-17T21:48:56.998Z,8.70
2023-02-17T21:51:24.702Z,9.10
2023-02-17T21:53:52.827Z,8.77
2023-02-17T21:56:22.358Z,7.30
2023-02-17T21:58:51.677Z,4.45
2023-02-17T22:01:21.123Z,2.53
2023-02-17T22:03:48.469Z,5.32
2023-02-17T22:06:24.972Z,3.40
2023-02-17T22:08:52.672Z,5.40
2023-02-17T22:11:26.081Z,5.18
2023-02-17T22:16:35.816Z,4.18
2023-02-17T22:19:04.744Z,1.63
2023-02-17T22:21:32.944Z,3.67
2023-02-17T22:24:02.997Z,4.82
2023-02-17T22:26:31.266Z,2.47
2023-02-17T22:28:58.772Z,2.28
2023-02-17T22:31:28.677Z,5.03
2023-02-17T22:34:04.233Z,1.95
2023-02-17T22:36:34.565Z,6.25
2023-02-17T22:39:02.697Z,2.30
2023-02-17T22:41:30.253Z,3.65
2023-02-17T22:43:57.297Z,2.15
2023-02-17T22:46:27.141Z,2.45
2023-02-17T22:48:56.117Z,2.97
2023-02-17T22:51:30.208Z,4.95
2023-02-17T22:53:57.928Z,6.55
2023-02-17T22:56:25.326Z,3.90
2023-02-17T22:58:58.015Z,4.78
2023-02-17T23:01:25.541Z,3.17
2023-02-17T23:03:54.605Z,2.08
2023-02-17T23:06:29.492Z,2.60
2023-02-17T23:08:57.657Z,3.00
2023-02-17T23:11:49.588Z,2.40
2023-02-17T23:14:26.981Z,3.92
2023-02-17T23:16:58.192Z,3.92
2023-02-17T23:19:25.326Z,5.60
2023-02-17T23:21:55.799Z,4.63
2023-02-17T23:24:25.039Z,4.68
2023-02-17T23:26:53.452Z,4.03
2023-02-17T23:29:20.570Z,2.30
2023-02-17T23:31:47.901Z,5.20
2023-02-17T23:34:16.065Z,8.82
2023-02-17T23:36:45.990Z,6.07
2023-02-17T23:39:13.914Z,3.03
2023-02-17T23:41:41.617Z,6.10
2023-02-17T23:44:10.968Z,4.38
2023-02-17T23:46:38.729Z,8.15
2023-02-17T23:49:06.181Z,2.90
2023-02-17T23:51:33.865Z,5.40
2023-02-17T23:54:01.198Z,6.88
2023-02-17T23:56:32.344Z,5.30
2023-02-17T23:59:00.109Z,6.60
